sensor_id;sensor_type;location;lat;lon;timestamp;pressure;altitude;pressure_sealevel;temperature;humidity
29385;BME280;16367;48.736;9.218;2022-11-15T00:01:44;-23450.72;;;8.93;100.00
29385;BME280;16367;48.736;9.218;2022-11-15T00:03:50;-23449.13;;;8.88;100.00
29385;BME280;16367;48.736;9.218;2022-11-15T00:05:53;-23450.56;;;8.92;100.00
29385;BME280;16367;48.736;9.218;2022-11-15T00:07:57;-23446.28;;;8.79;100.00
29385;BME280;16367;48.736;9.218;2022-11-15T00:10:00;-23447.53;;;8.83;100.00
29385;BME280;16367;48.736;9.218;2022-11-15T00:12:03;-23447.38;;;8.82;100.00
29385;BME280;16367;48.736;9.218;2022-11-15T00:14:06;-23447.88;;;8.84;100.00
29385;BME280;16367;48.736;9.218;2022-11-15T00:16:09;-23447.53;;;8.83;100.00
29385;BME280;16367;48.736;9.218;2022-11-15T00:18:14;-23450.72;;;8.93;100.00
29385;BME280;16367;48.736;9.218;2022-11-15T00:20:17;-23450.09;;;8.91;100.00
29385;BME280;16367;48.736;9.218;2022-11-15T00:22:20;-23449.44;;;8.89;100.00
29385;BME280;16367;48.736;9.218;2022-11-15T00:24:24;-23446.59;;;8.80;100.00
29385;BME280;16367;48.736;9.218;2022-11-15T00:26:26;-23445.00;;;8.75;100.00
29385;BME280;16367;48.736;9.218;2022-11-15T00:28:29;-23444.06;;;8.72;100.00
29385;BME280;16367;48.736;9.218;2022-11-15T00:30:32;-23444.84;;;8.74;100.00
29385;BME280;16367;48.736;9.218;2022-11-15T00:32:36;-23446.59;;;8.80;100.00
29385;BME280;16367;48.736;9.218;2022-11-15T00:34:38;-23446.75;;;8.80;100.00
29385;BME280;16367;48.736;9.218;2022-11-15T00:36:41;-23446.13;;;8.78;100.00
29385;BME280;16367;48.736;9.218;2022-11-15T00:38:43;-23444.53;;;8.73;100.00
29385;BME280;16367;48.736;9.218;2022-11-15T00:40:47;-23446.28;;;8.79;100.00
29385;BME280;16367;48.736;9.218;2022-11-15T00:42:50;-23445.66;;;8.77;100.00
29385;BME280;16367;48.736;9.218;2022-11-15T00:44:52;-23443.59;;;8.70;100.00
29385;BME280;16367;48.736;9.218;2022-11-15T00:46:55;-23442.31;;;8.66;100.00
29385;BME280;16367;48.736;9.218;2022-11-15T00:48:58;-23444.84;;;8.74;100.00
29385;BME280;16367;48.736;9.218;2022-11-15T00:51:01;-23446.91;;;8.81;100.00
29385;BME280;16367;48.736;9.218;2022-11-15T00:53:03;-23445.66;;;8.77;100.00
29385;BME280;16367;48.736;9.218;2022-11-15T00:55:07;-23442.94;;;8.68;100.00
29385;BME280;16367;48.736;9.218;2022-11-15T00:57:11;-23445.47;;;8.76;100.00
29385;BME280;16367;48.736;9.218;2022-11-15T00:59:14;-23446.28;;;8.79;100.00
29385;BME280;16367;48.736;9.218;2022-11-15T01:01:17;-23447.72;;;8.83;100.00
29385;BME280;16367;48.736;9.218;2022-11-15T01:03:19;-23445.81;;;8.77;100.00
29385;BME280;16367;48.736;9.218;2022-11-15T01:05:22;-23442.78;;;8.68;100.00
29385;BME280;16367;48.736;9.218;2022-11-15T01:07:25;-23440.88;;;8.62;100.00
29385;BME280;16367;48.736;9.218;2022-11-15T01:09:27;-23438.34;;;8.54;100.00
29385;BME280;16367;48.736;9.218;2022-11-15T01:11:30;-23437.41;;;8.51;100.00
29385;BME280;16367;48.736;9.218;2022-11-15T01:13:35;-23437.22;;;8.50;100.00
29385;BME280;16367;48.736;9.218;2022-11-15T01:15:39;-23437.22;;;8.50;100.00
29385;BME280;16367;48.736;9.218;2022-11-15T01:17:42;-23443.75;;;8.71;100.00
29385;BME280;16367;48.736;9.218;2022-11-15T01:19:45;-23444.38;;;8.73;100.00
29385;BME280;16367;48.736;9.218;2022-11-15T01:21:48;-23445.66;;;8.77;100.00
29385;BME280;16367;48.736;9.218;2022-11-15T01:23:52;-23443.91;;;8.71;100.00
29385;BME280;16367;48.736;9.218;2022-11-15T01:25:58;-23438.34;;;8.54;100.00
29385;BME280;16367;48.736;9.218;2022-11-15T01:28:01;-23437.53;;;8.51;100.00
29385;BME280;16367;48.736;9.218;2022-11-15T01:30:06;-23441.03;;;8.62;100.00
29385;BME280;16367;48.736;9.218;2022-11-15T01:32:09;-23435.47;;;8.45;100.00
29385;BME280;16367;48.736;9.218;2022-11-15T01:34:12;-23430.72;;;8.30;100.00
29385;BME280;16367;48.736;9.218;2022-11-15T01:36:19;-23426.59;;;8.16;100.00
29385;BME280;16367;48.736;9.218;2022-11-15T01:38:23;-23424.22;;;8.09;100.00
29385;BME280;16367;48.736;9.218;2022-11-15T01:40:26;-23425.63;;;8.13;100.00
29385;BME280;16367;48.736;9.218;2022-11-15T01:42:28;-23419.28;;;7.93;100.00
29385;BME280;16367;48.736;9.218;2022-11-15T01:44:39;-23421.19;;;7.99;100.00
29385;BME280;16367;48.736;9.218;2022-11-15T01:46:45;-23418.50;;;7.91;100.00
29385;BME280;16367;48.736;9.218;2022-11-15T01:48:50;-23419.28;;;7.93;100.00
29385;BME280;16367;48.736;9.218;2022-11-15T01:50:54;-23415.16;;;7.80;100.00
29385;BME280;16367;48.736;9.218;2022-11-15T01:52:56;-23414.53;;;7.78;100.00
29385;BME280;16367;48.736;9.218;2022-11-15T01:55:03;-23413.72;;;7.76;100.00
29385;BME280;16367;48.736;9.218;2022-11-15T01:57:09;-23409.13;;;7.61;100.00
29385;BME280;16367;48.736;9.218;2022-11-15T01:59:13;-23410.41;;;7.65;100.00
29385;BME280;16367;48.736;9.218;2022-11-15T02:01:16;-23411.03;;;7.67;100.00
29385;BME280;16367;48.736;9.218;2022-11-15T02:03:21;-23406.28;;;7.52;100.00
29385;BME280;16367;48.736;9.218;2022-11-15T02:05:26;-23410.41;;;7.65;100.00
29385;BME280;16367;48.736;9.218;2022-11-15T02:07:29;-23410.41;;;7.65;100.00
29385;BME280;16367;48.736;9.218;2022-11-15T02:09:33;-23410.88;;;7.67;100.00
29385;BME280;16367;48.736;9.218;2022-11-15T02:11:37;-23410.41;;;7.65;100.00
29385;BME280;16367;48.736;9.218;2022-11-15T02:13:40;-23409.91;;;7.64;100.00
29385;BME280;16367;48.736;9.218;2022-11-15T02:15:51;-23405.78;;;7.50;100.00
29385;BME280;16367;48.736;9.218;2022-11-15T02:18:11;-23408.50;;;7.59;100.00
29385;BME280;16367;48.736;9.218;2022-11-15T02:20:33;-23400.88;;;7.35;100.00
29385;BME280;16367;48.736;9.218;2022-11-15T02:22:46;-23403.25;;;7.42;100.00
29385;BME280;16367;48.736;9.218;2022-11-15T02:25:03;-23405.63;;;7.50;100.00
29385;BME280;16367;48.736;9.218;2022-11-15T02:27:32;-23408.50;;;7.59;100.00
29385;BME280;16367;48.736;9.218;2022-11-15T02:30:00;-23406.09;;;7.51;100.00
29385;BME280;16367;48.736;9.218;2022-11-15T02:32:11;-23405.31;;;7.49;100.00
29385;BME280;16367;48.736;9.218;2022-11-15T02:34:24;-23405.63;;;7.50;100.00
29385;BME280;16367;48.736;9.218;2022-11-15T02:36:35;-23405.63;;;7.50;100.00
29385;BME280;16367;48.736;9.218;2022-11-15T02:38:46;-23403.72;;;7.44;100.00
29385;BME280;16367;48.736;9.218;2022-11-15T02:40:53;-23410.88;;;7.67;100.00
29385;BME280;16367;48.736;9.218;2022-11-15T02:43:03;-23411.97;;;7.70;100.00
29385;BME280;16367;48.736;9.218;2022-11-15T02:45:29;-23418.97;;;7.92;100.00
29385;BME280;16367;48.736;9.218;2022-11-15T02:47:35;-23414.22;;;7.77;100.00
29385;BME280;16367;48.736;9.218;2022-11-15T02:49:43;-23420.88;;;7.98;100.00
29385;BME280;16367;48.736;9.218;2022-11-15T02:51:49;-23418.97;;;7.92;100.00
29385;BME280;16367;48.736;9.218;2022-11-15T02:53:53;-23417.38;;;7.87;100.00
29385;BME280;16367;48.736;9.218;2022-11-15T02:55:56;-23427.22;;;8.18;100.00
29385;BME280;16367;48.736;9.218;2022-11-15T02:58:10;-23426.59;;;8.16;100.00
29385;BME280;16367;48.736;9.218;2022-11-15T03:00:19;-23432.94;;;8.37;100.00
29385;BME280;16367;48.736;9.218;2022-11-15T03:02:36;-23433.41;;;8.38;100.00
29385;BME280;16367;48.736;9.218;2022-11-15T03:04:44;-23432.63;;;8.36;100.00
29385;BME280;16367;48.736;9.218;2022-11-15T03:07:05;-23426.59;;;8.16;100.00
29385;BME280;16367;48.736;9.218;2022-11-15T03:09:15;-23427.53;;;8.19;100.00
29385;BME280;16367;48.736;9.218;2022-11-15T03:11:21;-23423.41;;;8.06;100.00
29385;BME280;16367;48.736;9.218;2022-11-15T03:13:27;-23425.31;;;8.12;100.00
29385;BME280;16367;48.736;9.218;2022-11-15T03:15:32;-23423.09;;;8.05;100.00
29385;BME280;16367;48.736;9.218;2022-11-15T03:17:44;-23420.25;;;7.96;100.00
29385;BME280;16367;48.736;9.218;2022-11-15T03:19:53;-23418.81;;;7.92;100.00
29385;BME280;16367;48.736;9.218;2022-11-15T03:21:59;-23417.06;;;7.86;100.00
29385;BME280;16367;48.736;9.218;2022-11-15T03:24:04;-23412.31;;;7.71;100.00
29385;BME280;16367;48.736;9.218;2022-11-15T03:26:10;-23410.72;;;7.66;100.00
29385;BME280;16367;48.736;9.218;2022-11-15T03:28:17;-23410.06;;;7.64;100.00
29385;BME280;16367;48.736;9.218;2022-11-15T03:30:22;-23407.84;;;7.57;100.00
29385;BME280;16367;48.736;9.218;2022-11-15T03:32:28;-23407.53;;;7.56;100.00
29385;BME280;16367;48.736;9.218;2022-11-15T03:34:35;-23404.69;;;7.47;100.00
29385;BME280;16367;48.736;9.218;2022-11-15T03:36:40;-23406.91;;;7.54;100.00
29385;BME280;16367;48.736;9.218;2022-11-15T03:38:44;-23406.91;;;7.54;100.00
29385;BME280;16367;48.736;9.218;2022-11-15T03:40:51;-23407.84;;;7.57;100.00
29385;BME280;16367;48.736;9.218;2022-11-15T03:43:00;-23408.50;;;7.59;100.00
29385;BME280;16367;48.736;9.218;2022-11-15T03:45:10;-23414.38;;;7.78;100.00
29385;BME280;16367;48.736;9.218;2022-11-15T03:47:17;-23413.88;;;7.76;100.00
29385;BME280;16367;48.736;9.218;2022-11-15T03:49:25;-23410.88;;;7.67;100.00
29385;BME280;16367;48.736;9.218;2022-11-15T03:51:31;-23405.94;;;7.51;100.00
29385;BME280;16367;48.736;9.218;2022-11-15T03:53:34;-23406.75;;;7.53;100.00
29385;BME280;16367;48.736;9.218;2022-11-15T03:55:37;-23401.81;;;7.38;100.00
29385;BME280;16367;48.736;9.218;2022-11-15T03:57:39;-23404.34;;;7.46;100.00
29385;BME280;16367;48.736;9.218;2022-11-15T03:59:42;-23404.69;;;7.47;100.00
29385;BME280;16367;48.736;9.218;2022-11-15T04:01:45;-23406.91;;;7.54;100.00
29385;BME280;16367;48.736;9.218;2022-11-15T04:03:48;-23406.59;;;7.53;100.00
29385;BME280;16367;48.736;9.218;2022-11-15T04:05:50;-23408.16;;;7.58;100.00
29385;BME280;16367;48.736;9.218;2022-11-15T04:07:54;-23407.22;;;7.55;100.00
29385;BME280;16367;48.736;9.218;2022-11-15T04:09:57;-23403.09;;;7.42;100.00
29385;BME280;16367;48.736;9.218;2022-11-15T04:12:06;-23402.44;;;7.40;100.00
29385;BME280;16367;48.736;9.218;2022-11-15T04:14:09;-23400.53;;;7.34;100.00
29385;BME280;16367;48.736;9.218;2022-11-15T04:16:12;-23401.50;;;7.37;100.00
29385;BME280;16367;48.736;9.218;2022-11-15T04:18:14;-23396.25;;;7.20;100.00
29385;BME280;16367;48.736;9.218;2022-11-15T04:20:18;-23400.06;;;7.32;100.00
29385;BME280;16367;48.736;9.218;2022-11-15T04:22:39;-23398.47;;;7.27;100.00
29385;BME280;16367;48.736;9.218;2022-11-15T04:25:01;-23396.25;;;7.20;100.00
29385;BME280;16367;48.736;9.218;2022-11-15T04:27:04;-23398.16;;;7.26;100.00
29385;BME280;16367;48.736;9.218;2022-11-15T04:29:06;-23403.41;;;7.43;100.00
29385;BME280;16367;48.736;9.218;2022-11-15T04:31:27;-23401.19;;;7.36;100.00
29385;BME280;16367;48.736;9.218;2022-11-15T04:33:30;-23405.63;;;7.50;100.00
29385;BME280;16367;48.736;9.218;2022-11-15T04:35:33;-23402.28;;;7.39;100.00
29385;BME280;16367;48.736;9.218;2022-11-15T04:37:36;-23402.13;;;7.39;100.00
29385;BME280;16367;48.736;9.218;2022-11-15T04:39:37;-23401.81;;;7.38;100.00
29385;BME280;16367;48.736;9.218;2022-11-15T04:41:41;-23398.97;;;7.29;100.00
29385;BME280;16367;48.736;9.218;2022-11-15T04:43:44;-23394.81;;;7.16;100.00
29385;BME280;16367;48.736;9.218;2022-11-15T04:45:51;-23389.25;;;6.98;100.00
29385;BME280;16367;48.736;9.218;2022-11-15T04:47:54;-23392.44;;;7.08;100.00
29385;BME280;16367;48.736;9.218;2022-11-15T04:49:56;-23389.75;;;7.00;100.00
29385;BME280;16367;48.736;9.218;2022-11-15T04:51:59;-23391.66;;;7.06;100.00
29385;BME280;16367;48.736;9.218;2022-11-15T04:54:02;-23391.97;;;7.07;100.00
29385;BME280;16367;48.736;9.218;2022-11-15T04:56:05;-23392.75;;;7.09;100.00
29385;BME280;16367;48.736;9.218;2022-11-15T04:58:09;-23398.00;;;7.26;100.00
29385;BME280;16367;48.736;9.218;2022-11-15T05:00:14;-23396.09;;;7.20;100.00
29385;BME280;16367;48.736;9.218;2022-11-15T05:02:17;-23395.00;;;7.16;100.00
29385;BME280;16367;48.736;9.218;2022-11-15T05:04:20;-23395.16;;;7.17;100.00
29385;BME280;16367;48.736;9.218;2022-11-15T05:06:22;-23392.91;;;7.10;100.00
29385;BME280;16367;48.736;9.218;2022-11-15T05:08:24;-23395.47;;;7.18;100.00
29385;BME280;16367;48.736;9.218;2022-11-15T05:10:27;-23394.66;;;7.15;100.00
29385;BME280;16367;48.736;9.218;2022-11-15T05:12:30;-23395.47;;;7.18;100.00
29385;BME280;16367;48.736;9.218;2022-11-15T05:14:34;-23393.88;;;7.13;100.00
29385;BME280;16367;48.736;9.218;2022-11-15T05:16:37;-23393.56;;;7.12;100.00
29385;BME280;16367;48.736;9.218;2022-11-15T05:18:40;-23396.09;;;7.20;100.00
29385;BME280;16367;48.736;9.218;2022-11-15T05:20:42;-23399.28;;;7.30;100.00
29385;BME280;16367;48.736;9.218;2022-11-15T05:22:45;-23397.38;;;7.24;100.00
29385;BME280;16367;48.736;9.218;2022-11-15T05:24:48;-23399.44;;;7.30;100.00
29385;BME280;16367;48.736;9.218;2022-11-15T05:26:50;-23400.72;;;7.34;100.00
29385;BME280;16367;48.736;9.218;2022-11-15T05:28:53;-23400.88;;;7.35;100.00
29385;BME280;16367;48.736;9.218;2022-11-15T05:31:01;-23409.28;;;7.62;100.00
29385;BME280;16367;48.736;9.218;2022-11-15T05:33:04;-23411.97;;;7.70;100.00
29385;BME280;16367;48.736;9.218;2022-11-15T05:35:08;-23406.59;;;7.53;100.00
29385;BME280;16367;48.736;9.218;2022-11-15T05:37:15;-23411.97;;;7.70;100.00
29385;BME280;16367;48.736;9.218;2022-11-15T05:39:18;-23415.31;;;7.81;100.00
29385;BME280;16367;48.736;9.218;2022-11-15T05:41:32;-23416.59;;;7.85;100.00
29385;BME280;16367;48.736;9.218;2022-11-15T05:43:38;-23410.72;;;7.66;100.00
29385;BME280;16367;48.736;9.218;2022-11-15T05:45:41;-23400.88;;;7.35;100.00
29385;BME280;16367;48.736;9.218;2022-11-15T05:47:46;-23399.91;;;7.32;100.00
29385;BME280;16367;48.736;9.218;2022-11-15T05:49:51;-23397.53;;;7.24;100.00
29385;BME280;16367;48.736;9.218;2022-11-15T05:51:55;-23397.06;;;7.23;100.00
29385;BME280;16367;48.736;9.218;2022-11-15T05:54:00;-23396.72;;;7.22;100.00
29385;BME280;16367;48.736;9.218;2022-11-15T05:56:04;-23391.81;;;7.06;100.00
29385;BME280;16367;48.736;9.218;2022-11-15T05:58:08;-23391.66;;;7.06;100.00
29385;BME280;16367;48.736;9.218;2022-11-15T06:00:11;-23392.59;;;7.09;100.00
29385;BME280;16367;48.736;9.218;2022-11-15T06:02:14;-23391.34;;;7.05;100.00
29385;BME280;16367;48.736;9.218;2022-11-15T06:04:18;-23392.59;;;7.09;100.00
29385;BME280;16367;48.736;9.218;2022-11-15T06:06:21;-23391.16;;;7.04;100.00
29385;BME280;16367;48.736;9.218;2022-11-15T06:08:24;-23389.09;;;6.98;100.00
29385;BME280;16367;48.736;9.218;2022-11-15T06:10:26;-23395.16;;;7.17;100.00
29385;BME280;16367;48.736;9.218;2022-11-15T06:12:29;-23393.22;;;7.11;100.00
29385;BME280;16367;48.736;9.218;2022-11-15T06:14:31;-23389.75;;;7.00;100.00
29385;BME280;16367;48.736;9.218;2022-11-15T06:16:34;-23390.53;;;7.02;100.00
29385;BME280;16367;48.736;9.218;2022-11-15T06:18:37;-23386.88;;;6.91;100.00
29385;BME280;16367;48.736;9.218;2022-11-15T06:20:41;-23387.34;;;6.92;100.00
29385;BME280;16367;48.736;9.218;2022-11-15T06:22:44;-23389.44;;;6.99;100.00
29385;BME280;16367;48.736;9.218;2022-11-15T06:24:46;-23388.78;;;6.97;100.00
29385;BME280;16367;48.736;9.218;2022-11-15T06:26:49;-23390.22;;;7.01;100.00
29385;BME280;16367;48.736;9.218;2022-11-15T06:28:52;-23387.53;;;6.93;100.00
29385;BME280;16367;48.736;9.218;2022-11-15T06:30:54;-23387.84;;;6.94;100.00
29385;BME280;16367;48.736;9.218;2022-11-15T06:33:01;-23393.88;;;7.13;100.00
29385;BME280;16367;48.736;9.218;2022-11-15T06:35:04;-23389.75;;;7.00;100.00
29385;BME280;16367;48.736;9.218;2022-11-15T06:37:08;-23393.56;;;7.12;100.00
29385;BME280;16367;48.736;9.218;2022-11-15T06:39:11;-23392.13;;;7.07;100.00
29385;BME280;16367;48.736;9.218;2022-11-15T06:41:14;-23387.53;;;6.93;100.00
29385;BME280;16367;48.736;9.218;2022-11-15T06:43:18;-23388.00;;;6.94;100.00
29385;BME280;16367;48.736;9.218;2022-11-15T06:45:20;-23394.19;;;7.14;100.00
29385;BME280;16367;48.736;9.218;2022-11-15T06:47:23;-23392.13;;;7.07;100.00
29385;BME280;16367;48.736;9.218;2022-11-15T06:49:25;-23391.34;;;7.05;100.00
29385;BME280;16367;48.736;9.218;2022-11-15T06:51:28;-23396.09;;;7.20;100.00
29385;BME280;16367;48.736;9.218;2022-11-15T06:53:32;-23399.44;;;7.30;100.00
29385;BME280;16367;48.736;9.218;2022-11-15T06:55:35;-23400.53;;;7.34;100.00
29385;BME280;16367;48.736;9.218;2022-11-15T06:57:46;-23391.97;;;7.07;100.00
29385;BME280;16367;48.736;9.218;2022-11-15T06:59:49;-23395.47;;;7.18;100.00
29385;BME280;16367;48.736;9.218;2022-11-15T07:01:51;-23392.28;;;7.08;100.00
29385;BME280;16367;48.736;9.218;2022-11-15T07:03:54;-23396.41;;;7.21;100.00
29385;BME280;16367;48.736;9.218;2022-11-15T07:05:57;-23394.81;;;7.16;100.00
29385;BME280;16367;48.736;9.218;2022-11-15T07:08:07;-23396.25;;;7.20;100.00
29385;BME280;16367;48.736;9.218;2022-11-15T07:10:12;-23396.09;;;7.20;100.00
29385;BME280;16367;48.736;9.218;2022-11-15T07:12:14;-23400.38;;;7.33;100.00
29385;BME280;16367;48.736;9.218;2022-11-15T07:14:17;-23398.97;;;7.29;100.00
29385;BME280;16367;48.736;9.218;2022-11-15T07:16:20;-23402.13;;;7.39;100.00
29385;BME280;16367;48.736;9.218;2022-11-15T07:18:22;-23402.78;;;7.41;100.00
29385;BME280;16367;48.736;9.218;2022-11-15T07:20:25;-23407.53;;;7.56;100.00
29385;BME280;16367;48.736;9.218;2022-11-15T07:22:28;-23407.84;;;7.57;100.00
29385;BME280;16367;48.736;9.218;2022-11-15T07:24:30;-23409.75;;;7.63;100.00
29385;BME280;16367;48.736;9.218;2022-11-15T07:26:34;-23410.72;;;7.66;100.00
29385;BME280;16367;48.736;9.218;2022-11-15T07:28:37;-23412.47;;;7.72;100.00
29385;BME280;16367;48.736;9.218;2022-11-15T07:30:40;-23414.22;;;7.77;100.00
29385;BME280;16367;48.736;9.218;2022-11-15T07:32:45;-23418.97;;;7.92;100.00
29385;BME280;16367;48.736;9.218;2022-11-15T07:34:48;-23420.25;;;7.96;100.00
29385;BME280;16367;48.736;9.218;2022-11-15T07:36:51;-23422.78;;;8.04;100.00
29385;BME280;16367;48.736;9.218;2022-11-15T07:38:54;-23430.56;;;8.29;100.00
29385;BME280;16367;48.736;9.218;2022-11-15T07:40:58;-23434.69;;;8.42;100.00
29385;BME280;16367;48.736;9.218;2022-11-15T07:43:04;-23442.16;;;8.66;100.00
29385;BME280;16367;48.736;9.218;2022-11-15T07:45:08;-23449.78;;;8.90;100.00
29385;BME280;16367;48.736;9.218;2022-11-15T07:47:10;-23460.41;;;9.24;100.00
29385;BME280;16367;48.736;9.218;2022-11-15T07:49:13;-23468.81;;;9.50;100.00
29385;BME280;16367;48.736;9.218;2022-11-15T07:51:16;-23481.00;;;9.89;99.17
29385;BME280;16367;48.736;9.218;2022-11-15T07:53:19;-23469.44;;;9.52;97.70
29385;BME280;16367;48.736;9.218;2022-11-15T07:55:21;-23474.50;;;9.68;97.08
29385;BME280;16367;48.736;9.218;2022-11-15T07:57:24;-23473.88;;;9.66;97.72
29385;BME280;16367;48.736;9.218;2022-11-15T07:59:28;-23486.72;;;10.07;94.66
29385;BME280;16367;48.736;9.218;2022-11-15T08:01:31;-23493.53;;;10.29;93.09
29385;BME280;16367;48.736;9.218;2022-11-15T08:03:34;-23490.38;;;10.19;94.74
29385;BME280;16367;48.736;9.218;2022-11-15T08:05:38;-23500.50;;;10.51;93.58
29385;BME280;16367;48.736;9.218;2022-11-15T08:07:41;-23495.44;;;10.35;93.11
29385;BME280;16367;48.736;9.218;2022-11-15T08:09:44;-23482.75;;;9.95;95.32
29385;BME280;16367;48.736;9.218;2022-11-15T08:11:47;-23479.91;;;9.86;95.99
29385;BME280;16367;48.736;9.218;2022-11-15T08:13:49;-23476.88;;;9.76;97.37
29385;BME280;16367;48.736;9.218;2022-11-15T08:15:58;-23492.25;;;10.25;95.03
29385;BME280;16367;48.736;9.218;2022-11-15T08:18:03;-23500.19;;;10.50;92.39
29385;BME280;16367;48.736;9.218;2022-11-15T08:20:07;-23495.91;;;10.36;90.89
29385;BME280;16367;48.736;9.218;2022-11-15T08:22:10;-23497.34;;;10.41;91.68
29385;BME280;16367;48.736;9.218;2022-11-15T08:24:13;-23492.44;;;10.25;92.58
29385;BME280;16367;48.736;9.218;2022-11-15T08:26:15;-23489.09;;;10.15;93.87
29385;BME280;16367;48.736;9.218;2022-11-15T08:28:18;-23491.00;;;10.21;92.80
29385;BME280;16367;48.736;9.218;2022-11-15T08:30:21;-23493.06;;;10.27;92.00
29385;BME280;16367;48.736;9.218;2022-11-15T08:32:25;-23496.53;;;10.38;91.29
29385;BME280;16367;48.736;9.218;2022-11-15T08:34:28;-23529.81;;;11.44;85.45
29385;BME280;16367;48.736;9.218;2022-11-15T08:36:31;-23528.69;;;11.41;82.70
29385;BME280;16367;48.736;9.218;2022-11-15T08:38:46;-23531.22;;;11.49;83.61
29385;BME280;16367;48.736;9.218;2022-11-15T08:40:50;-23546.09;;;11.96;81.25
29385;BME280;16367;48.736;9.218;2022-11-15T08:42:53;-23533.59;;;11.56;83.41
29385;BME280;16367;48.736;9.218;2022-11-15T08:44:56;-23536.13;;;11.64;83.47
29385;BME280;16367;48.736;9.218;2022-11-15T08:46:59;-23548.97;;;12.05;83.69
29385;BME280;16367;48.736;9.218;2022-11-15T08:49:03;-23536.44;;;11.65;83.77
29385;BME280;16367;48.736;9.218;2022-11-15T08:51:05;-23523.63;;;11.24;86.24
29385;BME280;16367;48.736;9.218;2022-11-15T08:53:08;-23532.50;;;11.53;87.19
29385;BME280;16367;48.736;9.218;2022-11-15T08:55:11;-23556.38;;;12.29;82.45
29385;BME280;16367;48.736;9.218;2022-11-15T08:57:14;-23560.03;;;12.40;79.68
29385;BME280;16367;48.736;9.218;2022-11-15T08:59:17;-23557.19;;;12.31;80.71
29385;BME280;16367;48.736;9.218;2022-11-15T09:01:20;-23591.97;;;13.42;78.62
29385;BME280;16367;48.736;9.218;2022-11-15T09:03:23;-23596.53;;;13.57;75.22
29385;BME280;16367;48.736;9.218;2022-11-15T09:05:27;-23628.91;;;14.60;71.43
29385;BME280;16367;48.736;9.218;2022-11-15T09:07:29;-23639.66;;;14.94;69.01
29385;BME280;16367;48.736;9.218;2022-11-15T09:09:33;-23666.31;;;15.79;64.44
29385;BME280;16367;48.736;9.218;2022-11-15T09:11:35;-23677.03;;;16.13;60.58
29385;BME280;16367;48.736;9.218;2022-11-15T09:13:38;-23662.53;;;15.67;61.20
29385;BME280;16367;48.736;9.218;2022-11-15T09:15:41;-23615.50;;;14.17;67.96
29385;BME280;16367;48.736;9.218;2022-11-15T09:17:44;-23613.59;;;14.11;68.45
29385;BME280;16367;48.736;9.218;2022-11-15T09:19:47;-23563.81;;;12.52;75.18
29385;BME280;16367;48.736;9.218;2022-11-15T09:21:51;-23551.47;;;12.13;76.94
29385;BME280;16367;48.736;9.218;2022-11-15T09:23:53;-23554.66;;;12.23;78.36
29385;BME280;16367;48.736;9.218;2022-11-15T09:26:00;-23559.41;;;12.38;78.71
29385;BME280;16367;48.736;9.218;2022-11-15T09:28:06;-23584.06;;;13.17;74.23
29385;BME280;16367;48.736;9.218;2022-11-15T09:30:09;-23558.75;;;12.36;77.17
29385;BME280;16367;48.736;9.218;2022-11-15T09:32:12;-23556.22;;;12.28;77.79
29385;BME280;16367;48.736;9.218;2022-11-15T09:34:15;-23570.00;;;12.72;77.49
29385;BME280;16367;48.736;9.218;2022-11-15T09:36:18;-23611.53;;;14.04;72.30
29385;BME280;16367;48.736;9.218;2022-11-15T09:38:22;-23635.53;;;14.81;67.85
29385;BME280;16367;48.736;9.218;2022-11-15T09:40:24;-23632.69;;;14.72;68.08
29385;BME280;16367;48.736;9.218;2022-11-15T09:42:44;-23592.28;;;13.43;72.28
29385;BME280;16367;48.736;9.218;2022-11-15T09:44:59;-23581.69;;;13.09;74.68
29385;BME280;16367;48.736;9.218;2022-11-15T09:47:19;-23579.00;;;13.01;75.55
29385;BME280;16367;48.736;9.218;2022-11-15T09:49:25;-23592.28;;;13.43;75.34
29385;BME280;16367;48.736;9.218;2022-11-15T09:51:30;-23582.63;;;13.12;73.25
29385;BME280;16367;48.736;9.218;2022-11-15T09:53:41;-23577.41;;;12.96;74.36
29385;BME280;16367;48.736;9.218;2022-11-15T09:56:14;-23578.06;;;12.98;74.27
29385;BME280;16367;48.736;9.218;2022-11-15T09:58:24;-23569.34;;;12.70;75.81
29385;BME280;16367;48.736;9.218;2022-11-15T10:00:33;-23569.19;;;12.69;76.88
29385;BME280;16367;48.736;9.218;2022-11-15T10:03:06;-23566.03;;;12.59;77.14
29385;BME280;16367;48.736;9.218;2022-11-15T10:05:12;-23567.63;;;12.64;77.51
29385;BME280;16367;48.736;9.218;2022-11-15T10:07:18;-23571.88;;;12.78;77.54
29385;BME280;16367;48.736;9.218;2022-11-15T10:09:25;-23569.19;;;12.69;78.11
29385;BME280;16367;48.736;9.218;2022-11-15T10:11:32;-23574.72;;;12.87;78.00
29385;BME280;16367;48.736;9.218;2022-11-15T10:13:42;-23578.06;;;12.98;77.49
29385;BME280;16367;48.736;9.218;2022-11-15T10:15:46;-23575.84;;;12.91;77.37
29385;BME280;16367;48.736;9.218;2022-11-15T10:18:08;-23578.38;;;12.99;78.46
29385;BME280;16367;48.736;9.218;2022-11-15T10:20:16;-23580.91;;;13.07;77.03
29385;BME280;16367;48.736;9.218;2022-11-15T10:22:26;-23579.78;;;13.03;78.28
29385;BME280;16367;48.736;9.218;2022-11-15T10:24:35;-23579.63;;;13.03;78.44
29385;BME280;16367;48.736;9.218;2022-11-15T10:26:46;-23575.38;;;12.89;77.91
29385;BME280;16367;48.736;9.218;2022-11-15T10:28:49;-23571.88;;;12.78;78.51
29385;BME280;16367;48.736;9.218;2022-11-15T10:30:53;-23576.16;;;12.92;79.30
29385;BME280;16367;48.736;9.218;2022-11-15T10:32:56;-23580.28;;;13.05;80.07
29385;BME280;16367;48.736;9.218;2022-11-15T10:34:59;-23598.91;;;13.64;75.18
29385;BME280;16367;48.736;9.218;2022-11-15T10:37:01;-23592.59;;;13.44;75.94
29385;BME280;16367;48.736;9.218;2022-11-15T10:39:04;-23585.47;;;13.21;76.84
29385;BME280;16367;48.736;9.218;2022-11-15T10:41:10;-23581.53;;;13.09;77.81
29385;BME280;16367;48.736;9.218;2022-11-15T10:43:16;-23590.06;;;13.36;76.55
29385;BME280;16367;48.736;9.218;2022-11-15T10:45:25;-23578.38;;;12.99;78.71
29385;BME280;16367;48.736;9.218;2022-11-15T10:47:29;-23578.69;;;13.00;78.55
29385;BME280;16367;48.736;9.218;2022-11-15T10:49:53;-23594.50;;;13.50;77.01
29385;BME280;16367;48.736;9.218;2022-11-15T10:51:59;-23597.50;;;13.60;75.77
29385;BME280;16367;48.736;9.218;2022-11-15T10:54:06;-23602.69;;;13.76;76.08
29385;BME280;16367;48.736;9.218;2022-11-15T10:56:21;-23584.84;;;13.19;77.68